Time;durP1;ratioP1;P1;durP2;ratioP2;P2;SDS_P1;SDS_P2;PMS_P1;PMS_P2;Temp;Humidity;BMP_temperature;BMP_pressure;BME280_temperature;BME280_humidity;BME280_pressure;Samples;Min_cycle;Max_cycle;Signal;HPM_P1;HPM_P2
2022/10/08 00:01:12;;;;;;;13.55;5.30;;;;;;;8.56;82.43;100276.03;6229156;22;20034;-68
2022/10/08 00:03:39;;;;;;;11.85;4.55;;;;;;;8.58;82.59;100269.69;6231257;22;20015;-68
2022/10/08 00:06:11;;;;;;;10.23;4.80;;;;;;;8.66;82.34;100271.97;6231176;22;20026;-70
2022/10/08 00:08:38;;;;;;;15.45;5.18;;;;;;;8.64;82.13;100268.50;6230247;22;20038;-73
2022/10/08 00:11:12;;;;;;;10.57;4.63;;;;;;;8.66;82.06;100274.63;6231356;22;20055;-72
2022/10/08 00:13:39;;;;;;;15.00;6.28;;;;;;;8.65;82.07;100272.91;6230016;22;20019;-75
2022/10/08 00:16:04;;;;;;;7.78;4.35;;;;;;;8.64;82.08;100264.06;6234577;22;20436;-73
2022/10/08 00:18:29;;;;;;;10.32;5.70;;;;;;;8.67;81.94;100269.22;6231811;22;20047;-73
2022/10/08 00:21:03;;;;;;;12.38;4.97;;;;;;;8.74;81.97;100273.25;6235365;22;20011;-72
2022/10/08 00:23:28;;;;;;;10.95;5.35;;;;;;;8.73;82.02;100278.66;6236082;22;20015;-71
2022/10/08 00:25:53;;;;;;;9.30;4.65;;;;;;;8.74;81.56;100270.59;6230846;22;20016;-72
2022/10/08 00:28:17;;;;;;;8.95;4.72;;;;;;;8.79;81.86;100270.34;6230498;22;20026;-67
2022/10/08 00:30:42;;;;;;;8.93;4.82;;;;;;;8.83;81.61;100266.56;6229886;22;20020;-69
2022/10/08 00:33:09;;;;;;;11.55;5.10;;;;;;;8.89;81.24;100276.03;6230241;22;20012;-67
2022/10/08 00:35:38;;;;;;;10.50;4.88;;;;;;;8.91;81.44;100271.50;6228451;22;20015;-67
2022/10/08 00:38:03;;;;;;;10.43;4.65;;;;;;;8.92;81.26;100278.50;6228368;22;20054;-72
2022/10/08 00:40:28;;;;;;;10.43;4.20;;;;;;;8.95;81.23;100273.88;6228034;22;20011;-67
2022/10/08 00:42:53;;;;;;;12.00;4.47;;;;;;;9.00;80.61;100271.84;6226880;22;20580;-73
2022/10/08 00:45:17;;;;;;;18.27;5.55;;;;;;;9.03;80.62;100269.00;6230287;22;20319;-73
2022/10/08 00:47:47;;;;;;;14.10;4.15;;;;;;;9.08;80.67;100274.94;6228674;22;20721;-74
2022/10/08 00:50:34;;;;;;;16.48;5.25;;;;;;;9.18;80.57;100274.41;6230351;22;20020;-75
2022/10/08 00:53:05;;;;;;;11.85;4.50;;;;;;;9.20;80.40;100272.53;6203323;22;20027;-72
2022/10/08 00:55:31;;;;;;;7.65;4.28;;;;;;;9.21;80.22;100274.25;6234746;22;20019;-72
2022/10/08 00:58:01;;;;;;;10.23;4.10;;;;;;;9.23;80.05;100283.00;6233484;22;20015;-73
2022/10/08 01:00:26;;;;;;;9.98;4.32;;;;;;;9.27;80.01;100277.41;6231427;22;20065;-73
2022/10/08 01:02:52;;;;;;;11.32;4.82;;;;;;;9.33;79.45;100278.88;6228310;22;20015;-73
2022/10/08 01:05:23;;;;;;;9.20;4.10;;;;;;;9.37;79.39;100280.41;6228825;22;20023;-71
2022/10/08 01:08:08;;;;;;;9.25;3.78;;;;;;;9.45;79.33;100276.41;6229301;22;20470;-72
2022/10/08 01:10:47;;;;;;;20.73;4.57;;;;;;;9.46;79.13;100275.47;6231374;22;20023;-72
2022/10/08 01:13:17;;;;;;;8.13;4.15;;;;;;;9.50;78.86;100277.91;6229154;22;20030;-73
2022/10/08 01:16:02;;;;;;;8.90;4.55;;;;;;;9.55;79.02;100274.06;6228791;22;20573;-73
2022/10/08 01:18:53;;;;;;;12.10;4.40;;;;;;;9.54;78.63;100274.16;6105660;23;20449;-75
2022/10/08 01:21:34;;;;;;;10.38;4.47;;;;;;;9.51;79.02;100277.84;6107262;23;20039;-73
2022/10/08 01:23:59;;;;;;;11.10;4.38;;;;;;;9.41;78.72;100279.31;6106702;23;20026;-75
2022/10/08 01:27:01;;;;;;;12.85;5.43;;;;;;;9.43;78.33;100272.97;6107610;23;20080;-75
2022/10/08 01:29:38;;;;;;;8.05;4.43;;;;;;;9.37;78.68;100275.94;6055223;23;20142;-72
2022/10/08 01:32:13;;;;;;;12.88;4.55;;;;;;;9.30;79.11;100279.91;6110342;23;20018;-70
2022/10/08 01:34:43;;;;;;;;;;;;;;;9.42;78.89;100284.53;6110896;23;20455;-70
2022/10/08 01:37:14;;;;;;;8.65;4.30;;;;;;;9.36;79.63;100290.22;6108425;23;19912;-72
2022/10/08 01:39:40;;;;;;;12.93;5.00;;;;;;;9.36;79.35;100287.56;6116914;23;20095;-71
2022/10/08 01:42:07;;;;;;;21.15;9.45;;;;;;;9.38;79.09;100285.66;6119846;23;20072;-71
2022/10/08 01:44:42;;;;;;;14.52;4.95;;;;;;;9.47;79.35;100286.97;6114324;23;20115;-69
2022/10/08 01:47:11;;;;;;;11.95;4.75;;;;;;;9.46;79.08;100285.25;6108691;23;20043;-70
2022/10/08 01:49:43;;;;;;;13.68;4.90;;;;;;;9.49;78.36;100287.72;6108816;23;20043;-70
2022/10/08 01:52:15;;;;;;;18.02;4.68;;;;;;;9.51;79.00;100288.47;6108940;23;20127;-69
2022/10/08 01:54:44;;;;;;;11.85;4.55;;;;;;;9.50;77.97;100292.09;6080794;22;20017;-70
2022/10/08 01:57:09;;;;;;;10.45;4.30;;;;;;;9.45;78.15;100284.38;6238293;22;20526;-71
2022/10/08 01:59:41;;;;;;;9.88;4.43;;;;;;;9.45;78.26;100284.38;6230453;22;20024;-70
2022/10/08 02:02:23;;;;;;;7.88;4.18;;;;;;;9.43;78.41;100285.41;6229846;22;20008;-70
2022/10/08 02:04:52;;;;;;;14.15;5.15;;;;;;;9.39;78.40;100291.84;6229168;22;20354;-69
2022/10/08 02:07:19;;;;;;;10.48;3.75;;;;;;;9.38;78.25;100282.13;6229561;22;20015;-70
2022/10/08 02:09:50;;;;;;;12.15;4.55;;;;;;;9.38;78.56;100284.78;6228818;22;20019;-70
2022/10/08 02:12:15;;;;;;;10.05;3.97;;;;;;;9.36;78.14;100279.59;6230168;22;20016;-71
2022/10/08 02:14:43;;;;;;;12.05;3.67;;;;;;;9.34;78.32;100285.94;6229206;22;20019;-70
2022/10/08 02:17:07;;;;;;;11.60;4.65;;;;;;;9.33;78.41;100285.06;6228198;22;20023;-70
2022/10/08 02:19:56;;;;;;;7.72;3.95;;;;;;;9.42;78.67;100284.53;6232221;22;20027;-70
2022/10/08 02:22:28;;;;;;;7.88;4.10;;;;;;;9.40;78.48;100289.09;6240430;22;20032;-70
2022/10/08 02:25:00;;;;;;;12.27;4.22;;;;;;;9.43;78.25;100296.06;6230217;22;20352;-70
2022/10/08 02:27:57;;;;;;;11.40;4.00;;;;;;;9.47;78.21;100286.97;6235386;22;20049;-69
2022/10/08 02:30:23;;;;;;;11.30;4.60;;;;;;;9.42;78.24;100294.34;6229127;22;20068;-69
2022/10/08 02:33:00;;;;;;;14.25;4.32;;;;;;;9.48;78.09;100287.81;6228889;22;20016;-70
2022/10/08 02:35:41;;;;;;;11.55;4.35;;;;;;;9.55;78.24;100300.69;6227127;22;20055;-71
2022/10/08 02:38:12;;;;;;;11.88;4.20;;;;;;;9.56;78.43;100296.22;6228789;22;20019;-70
2022/10/08 02:40:42;;;;;;;13.85;4.18;;;;;;;9.58;78.49;100303.19;6229634;22;20590;-70
2022/10/08 02:43:15;;;;;;;9.50;4.20;;;;;;;9.60;77.60;100298.59;6228812;22;20020;-64
2022/10/08 02:45:49;;;;;;;11.80;4.95;;;;;;;9.65;77.63;100295.69;6228931;22;20019;-64
2022/10/08 02:48:32;;;;;;;7.50;3.97;;;;;;;9.66;77.91;100292.94;6229202;22;20469;-64
2022/10/08 02:51:09;;;;;;;7.78;3.83;;;;;;;9.67;77.48;100296.47;6226943;22;20324;-68
2022/10/08 02:53:37;;;;;;;8.48;4.30;;;;;;;9.65;77.49;100285.91;6229596;22;20011;-66
2022/10/08 02:56:23;;;;;;;13.73;4.65;;;;;;;9.73;77.51;100288.09;6229173;22;20016;-65
2022/10/08 02:58:47;;;;;;;13.25;4.00;;;;;;;9.68;77.33;100285.72;6229651;22;20351;-65
2022/10/08 03:01:31;;;;;;;9.80;4.32;;;;;;;9.71;77.72;100284.66;6229120;22;20007;-69
2022/10/08 03:04:02;;;;;;;13.57;4.60;;;;;;;9.75;78.07;100292.41;6229308;22;20016;-69
2022/10/08 03:06:28;;;;;;;9.38;4.20;;;;;;;9.75;77.19;100286.22;6227835;22;20019;-69
2022/10/08 03:08:58;;;;;;;10.05;4.50;;;;;;;9.78;77.42;100281.59;6229690;22;20019;-70
2022/10/08 03:11:23;;;;;;;9.18;4.40;;;;;;;9.76;77.09;100277.28;6228215;22;20435;-69
2022/10/08 03:13:50;;;;;;;10.85;4.35;;;;;;;9.75;77.30;100279.09;6227924;22;20470;-71
2022/10/08 03:16:19;;;;;;;9.88;3.38;;;;;;;9.76;77.63;100282.63;6228454;22;20039;-70
2022/10/08 03:18:44;;;;;;;9.88;4.45;;;;;;;9.78;76.88;100281.59;6228227;22;20208;-70
2022/10/08 03:21:12;;;;;;;11.70;4.30;;;;;;;9.80;77.00;100282.38;6229620;22;20047;-69
2022/10/08 03:23:36;;;;;;;7.40;3.90;;;;;;;9.81;77.06;100292.06;6227522;22;20020;-70
2022/10/08 03:26:01;;;;;;;12.10;4.80;;;;;;;9.82;76.84;100282.25;6228718;22;20023;-66
2022/10/08 03:28:25;;;;;;;11.27;4.47;;;;;;;9.82;77.39;100280.44;6228052;22;20022;-65
2022/10/08 03:30:50;;;;;;;10.18;4.10;;;;;;;9.87;77.56;100284.66;6227920;22;20020;-65
2022/10/08 03:33:15;;;;;;;21.05;4.25;;;;;;;9.90;76.88;100281.81;6227357;22;20400;-69
2022/10/08 03:35:46;;;;;;;7.03;3.88;;;;;;;9.97;76.42;100280.50;6232365;22;20038;-69
2022/10/08 03:38:11;;;;;;;9.93;3.72;;;;;;;9.90;76.57;100285.34;6227127;22;20050;-70
2022/10/08 03:40:36;;;;;;;10.68;4.70;;;;;;;9.89;76.92;100275.63;6230625;22;20350;-69
2022/10/08 03:43:00;;;;;;;12.45;4.25;;;;;;;9.89;76.60;100290.75;6235025;22;20043;-69
2022/10/08 03:45:25;;;;;;;11.73;4.28;;;;;;;9.90;76.52;100284.47;6215253;22;20016;-70
2022/10/08 03:47:50;;;;;;;9.13;3.47;;;;;;;9.92;76.53;100291.44;6243100;22;20019;-70
2022/10/08 03:50:15;;;;;;;10.35;4.03;;;;;;;9.92;76.66;100287.91;6242535;22;20046;-69
2022/10/08 03:52:40;;;;;;;8.60;3.72;;;;;;;9.92;76.45;100294.09;6243959;22;20019;-70
2022/10/08 03:55:05;;;;;;;6.95;3.80;;;;;;;9.94;76.54;100296.66;6235975;22;20015;-69
2022/10/08 03:57:29;;;;;;;7.07;3.47;;;;;;;9.93;76.99;100293.13;6230348;22;20015;-69
2022/10/08 03:59:54;;;;;;;12.95;4.22;;;;;;;9.96;76.76;100284.97;6232933;22;20015;-69
2022/10/08 04:02:19;;;;;;;8.05;4.15;;;;;;;9.94;76.62;100283.34;6241429;22;20015;-69
2022/10/08 04:04:44;;;;;;;13.93;4.13;;;;;;;9.91;76.42;100286.19;6243143;22;20012;-69
2022/10/08 04:07:08;;;;;;;9.65;4.18;;;;;;;9.90;76.33;100277.34;6246372;22;20023;-70
2022/10/08 04:09:33;;;;;;;10.65;4.13;;;;;;;9.90;76.28;100289.81;6245682;22;20058;-65
2022/10/08 04:11:58;;;;;;;6.88;3.42;;;;;;;9.91;76.42;100280.88;6240086;22;20483;-65
2022/10/08 04:14:23;;;;;;;9.60;3.72;;;;;;;9.95;76.22;100293.03;6233765;22;20502;-66
2022/10/08 04:16:47;;;;;;;8.18;3.72;;;;;;;9.96;75.77;100289.44;6229509;22;20076;-65
2022/10/08 04:19:13;;;;;;;15.15;4.00;;;;;;;9.91;75.97;100287.06;6228285;22;20019;-65
2022/10/08 04:21:38;;;;;;;9.93;3.85;;;;;;;9.90;76.29;100284.47;6228549;22;20012;-65
2022/10/08 04:24:02;;;;;;;11.07;5.00;;;;;;;9.92;76.43;100285.25;6230322;22;20030;-65
2022/10/08 04:26:27;;;;;;;8.65;3.83;;;;;;;9.97;76.18;100283.16;6230222;22;20351;-65
2022/10/08 04:28:52;;;;;;;13.40;3.70;;;;;;;9.98;75.64;100292.88;6228769;22;20020;-65
2022/10/08 04:31:20;;;;;;;14.65;3.88;;;;;;;9.98;76.13;100292.88;6229520;22;20011;-67
2022/10/08 04:33:45;;;;;;;10.07;4.18;;;;;;;9.99;75.94;100289.25;6228450;22;20015;-65
2022/10/08 04:36:12;;;;;;;7.78;3.50;;;;;;;10.00;76.24;100290.97;6228210;22;20039;-63
2022/10/08 04:38:37;;;;;;;8.93;4.07;;;;;;;10.02;75.79;100289.09;6237483;22;20454;-64
2022/10/08 04:41:05;;;;;;;10.63;4.03;;;;;;;10.03;76.09;100291.66;6240663;22;20611;-68
2022/10/08 04:43:29;;;;;;;11.82;3.75;;;;;;;10.08;76.05;100291.38;6244074;22;20047;-68
2022/10/08 04:45:54;;;;;;;7.32;4.03;;;;;;;10.12;76.08;100295.59;6230657;22;20023;-68
2022/10/08 04:48:19;;;;;;;9.70;3.53;;;;;;;10.15;75.61;100292.75;6228855;22;20022;-68
2022/10/08 04:50:43;;;;;;;8.00;3.60;;;;;;;10.15;75.83;100295.41;6229954;22;20451;-67
2022/10/08 04:53:08;;;;;;;8.98;4.22;;;;;;;10.18;75.82;100295.25;6228519;22;20095;-70
2022/10/08 04:55:32;;;;;;;13.13;4.28;;;;;;;10.21;75.57;100305.72;6203027;22;20332;-70
2022/10/08 04:57:57;;;;;;;8.85;4.00;;;;;;;10.18;75.33;100305.91;6229936;22;20016;-71
2022/10/08 05:00:22;;;;;;;9.35;4.93;;;;;;;10.26;75.34;100308.13;6229126;22;20031;-70
2022/10/08 05:02:47;;;;;;;8.55;3.67;;;;;;;10.24;75.23;100305.56;6230087;22;20020;-69
2022/10/08 05:05:11;;;;;;;10.13;4.00;;;;;;;10.30;75.30;100306.97;6177178;22;20015;-69
2022/10/08 05:07:36;;;;;;;9.98;3.20;;;;;;;10.28;74.80;100304.41;6230932;22;20323;-70
2022/10/08 05:10:01;;;;;;;7.93;4.07;;;;;;;10.28;75.14;100308.88;6229532;22;20531;-69
2022/10/08 05:12:25;;;;;;;10.38;3.70;;;;;;;10.30;74.99;100310.50;6227934;22;20016;-65
2022/10/08 05:14:50;;;;;;;12.18;3.83;;;;;;;10.35;74.99;100313.78;6227570;22;20098;-64
2022/10/08 05:17:14;;;;;;;8.18;3.60;;;;;;;10.38;74.66;100308.25;6229598;22;20365;-64
2022/10/08 05:19:39;;;;;;;5.20;3.25;;;;;;;10.42;75.15;100314.25;6229938;22;20439;-65
2022/10/08 05:22:04;;;;;;;7.35;3.67;;;;;;;10.46;74.42;100315.78;6227811;22;20018;-66
2022/10/08 05:24:28;;;;;;;10.27;4.38;;;;;;;10.44;74.47;100312.34;6229606;22;20031;-65
2022/10/08 05:26:53;;;;;;;8.82;3.58;;;;;;;10.43;74.55;100315.97;6228074;22;20022;-65
2022/10/08 05:29:18;;;;;;;15.77;4.35;;;;;;;10.46;74.50;100313.97;6229910;22;20015;-65
2022/10/08 05:31:43;;;;;;;9.82;3.60;;;;;;;10.45;74.27;100322.94;6203925;22;20077;-64
2022/10/08 05:34:14;;;;;;;11.60;3.35;;;;;;;10.46;74.42;100313.97;6230267;22;20023;-64
2022/10/08 05:36:39;;;;;;;10.95;4.35;;;;;;;10.40;73.98;100324.13;6230206;22;20016;-65
2022/10/08 05:39:05;;;;;;;9.93;3.20;;;;;;;10.44;73.62;100323.88;6229727;22;20534;-65
2022/10/08 05:41:32;;;;;;;12.35;4.72;;;;;;;10.47;73.48;100329.03;6229663;22;20050;-65
2022/10/08 05:43:58;;;;;;;10.45;5.82;;;;;;;10.41;73.33;100320.53;6202412;22;20374;-64
2022/10/08 05:46:25;;;;;;;13.57;4.40;;;;;;;10.39;74.35;100325.94;6229052;22;20383;-65
2022/10/08 05:48:54;;;;;;;11.15;3.92;;;;;;;10.47;73.91;100328.16;6229652;22;20451;-65
2022/10/08 05:51:19;;;;;;;6.50;3.63;;;;;;;10.53;73.97;100323.31;6227693;22;20019;-65
2022/10/08 05:53:46;;;;;;;7.80;3.65;;;;;;;10.57;73.20;100323.13;6228388;22;20025;-65
2022/10/08 05:56:12;;;;;;;13.45;4.10;;;;;;;10.66;73.26;100318.09;6238924;22;20473;-65
2022/10/08 05:58:38;;;;;;;9.65;3.72;;;;;;;10.78;72.77;100316.50;6240712;22;20027;-64
2022/10/08 06:01:05;;;;;;;10.68;4.45;;;;;;;10.87;72.51;100319.44;6231099;22;20016;-65
2022/10/08 06:03:30;;;;;;;10.80;3.67;;;;;;;11.00;72.34;100322.22;6229262;22;20039;-64
2022/10/08 06:06:04;;;;;;;11.82;4.30;;;;;;;11.09;71.87;100320.75;6229280;22;20020;-64
2022/10/08 06:08:29;;;;;;;8.38;3.50;;;;;;;11.22;71.71;100313.72;6229259;22;20015;-65
2022/10/08 06:10:54;;;;;;;10.45;3.67;;;;;;;11.43;71.27;100311.47;6227314;22;20062;-65
2022/10/08 06:13:20;;;;;;;8.30;3.58;;;;;;;11.61;70.61;100313.84;6227405;22;20019;-65
2022/10/08 06:16:00;;;;;;;13.63;4.95;;;;;;;11.80;70.10;100312.66;6227935;22;20019;-65
2022/10/08 06:18:27;;;;;;;11.75;3.72;;;;;;;11.90;69.26;100311.06;6229627;22;20043;-64
2022/10/08 06:20:51;;;;;;;13.02;4.13;;;;;;;12.33;68.66;100307.22;6228888;22;20039;-65
2022/10/08 06:23:17;;;;;;;14.75;4.97;;;;;;;13.24;66.04;100312.50;6229067;22;20016;-65
2022/10/08 06:25:42;;;;;;;10.25;3.90;;;;;;;14.45;62.64;100310.59;6229163;22;20079;-65
2022/10/08 06:28:06;;;;;;;6.13;3.25;;;;;;;15.74;58.43;100307.47;6229505;22;20042;-66
2022/10/08 06:30:31;;;;;;;7.90;3.53;;;;;;;16.82;55.07;100309.88;6227674;22;20050;-63
2022/10/08 06:32:56;;;;;;;11.80;4.18;;;;;;;17.35;53.13;100302.50;6229104;22;20451;-64
2022/10/08 06:35:20;;;;;;;6.85;3.72;;;;;;;18.39;50.66;100311.91;6225250;22;20011;-64
2022/10/08 06:37:48;;;;;;;10.38;3.60;;;;;;;19.06;48.77;100319.03;6229495;22;20102;-64
2022/10/08 06:40:13;;;;;;;6.32;3.17;;;;;;;19.13;47.44;100307.47;6228786;22;20019;-66
2022/10/08 06:42:38;;;;;;;9.43;4.00;;;;;;;19.02;46.79;100314.91;6228810;22;20023;-64
2022/10/08 06:45:03;;;;;;;11.88;4.32;;;;;;;19.32;46.45;100317.34;6228552;22;20073;-65
2022/10/08 06:47:28;;;;;;;9.75;3.83;;;;;;;19.83;45.47;100311.44;6228612;22;20020;-64
2022/10/08 06:49:52;;;;;;;8.02;3.40;;;;;;;20.52;44.13;100313.47;6227285;22;20020;-64
2022/10/08 06:52:17;;;;;;;9.93;4.70;;;;;;;21.63;41.77;100407.59;6229607;22;20016;-65
2022/10/08 06:54:42;;;;;;;8.10;3.10;;;;;;;22.81;39.53;100317.72;6228856;22;20015;-64
2022/10/08 06:57:06;;;;;;;7.82;4.13;;;;;;;23.92;36.90;100317.72;6226875;22;20016;-63
2022/10/08 06:59:31;;;;;;;11.00;5.07;;;;;;;24.82;35.06;100348.75;6227582;22;20019;-65
2022/10/08 07:01:55;;;;;;;10.63;4.38;;;;;;;25.93;33.34;100309.63;6229244;22;20007;-63
2022/10/08 07:04:20;;;;;;;8.40;3.55;;;;;;;25.78;32.32;100393.50;6228744;22;20016;-65
2022/10/08 07:06:45;;;;;;;6.90;3.90;;;;;;;24.79;32.86;100308.19;6228630;22;20446;-66
2022/10/08 07:09:09;;;;;;;13.55;5.40;;;;;;;23.87;33.86;100299.19;6228625;22;20474;-64
2022/10/08 07:11:37;;;;;;;12.60;5.03;;;;;;;22.93;35.00;100310.06;6228767;22;20098;-64
2022/10/08 07:14:01;;;;;;;11.68;4.05;;;;;;;22.63;36.63;100310.75;6229047;22;20350;-64
2022/10/08 07:16:27;;;;;;;7.00;4.13;;;;;;;22.78;36.34;100311.78;6229129;22;20022;-64
2022/10/08 07:18:53;;;;;;;9.35;3.85;;;;;;;23.93;34.43;100303.03;6229280;22;20025;-64
2022/10/08 07:21:21;;;;;;;6.88;3.70;;;;;;;25.61;32.04;100292.66;6229417;22;20446;-64
2022/10/08 07:23:46;;;;;;;15.95;3.97;;;;;;;26.67;30.32;100301.97;6231926;22;20450;-64
2022/10/08 07:26:13;;;;;;;8.38;4.60;;;;;;;26.91;29.62;100308.91;6207325;22;20459;-66
2022/10/08 07:28:47;;;;;;;8.23;3.90;;;;;;;26.49;29.70;100299.72;6235416;22;20428;-68
2022/10/08 07:31:15;;;;;;;7.93;4.57;;;;;;;25.75;30.34;100301.84;6235236;22;20085;-66
2022/10/08 07:33:40;;;;;;;8.68;3.90;;;;;;;25.52;31.21;100301.94;6233885;22;20011;-65
2022/10/08 07:36:13;;;;;;;9.07;4.00;;;;;;;26.46;28.91;100294.66;6203347;22;20019;-65
2022/10/08 07:38:38;;;;;;;8.75;4.15;;;;;;;28.08;27.88;100301.56;6231196;22;20066;-64
2022/10/08 07:41:03;;;;;;;11.07;4.47;;;;;;;29.44;26.45;100302.88;6229049;22;20351;-65
2022/10/08 07:43:28;;;;;;;8.07;4.93;;;;;;;29.81;25.11;100293.81;6230810;22;20019;-65
2022/10/08 07:45:53;;;;;;;8.40;3.97;;;;;;;30.05;24.70;100303.25;6228209;22;20022;-66
2022/10/08 07:48:18;;;;;;;6.13;4.35;;;;;;;30.34;24.22;100296.31;6230964;22;20011;-64
2022/10/08 07:50:43;;;;;;;6.97;3.58;;;;;;;30.99;23.91;100307.88;6229044;22;20094;-66
2022/10/08 07:53:08;;;;;;;9.30;4.10;;;;;;;31.36;23.41;100298.63;6231156;22;20023;-66
2022/10/08 07:55:32;;;;;;;7.10;4.00;;;;;;;32.18;22.81;100295.47;6230572;22;20024;-67
2022/10/08 07:57:57;;;;;;;9.07;4.32;;;;;;;31.77;22.17;100302.59;6231186;22;20027;-66
2022/10/08 08:00:22;;;;;;;8.40;4.30;;;;;;;31.19;22.97;100296.66;6230593;22;20046;-65
2022/10/08 08:02:47;;;;;;;9.38;4.70;;;;;;;30.07;23.51;100292.03;6229180;22;20392;-65
2022/10/08 08:05:11;;;;;;;8.20;3.85;;;;;;;30.29;23.68;100290.63;6229194;22;20456;-66
2022/10/08 08:07:36;;;;;;;10.02;5.00;;;;;;;29.86;24.02;100288.53;6230662;22;20016;-65
2022/10/08 08:10:02;;;;;;;11.15;4.60;;;;;;;29.12;24.76;100279.91;6228924;22;20445;-65
2022/10/08 08:12:28;;;;;;;8.60;4.60;;;;;;;29.23;25.03;100274.56;6229320;22;20090;-65
2022/10/08 08:14:52;;;;;;;13.00;4.75;;;;;;;28.99;25.05;100278.03;6230330;22;20056;-64
2022/10/08 08:17:17;;;;;;;9.80;4.30;;;;;;;28.09;26.13;100268.47;6228975;22;20098;-65
2022/10/08 08:19:42;;;;;;;7.20;4.55;;;;;;;27.89;26.54;100272.19;6231260;22;20409;-66
2022/10/08 08:22:06;;;;;;;8.20;4.90;;;;;;;27.77;27.02;100258.22;6230503;22;20324;-65
2022/10/08 08:24:31;;;;;;;10.77;4.90;;;;;;;28.36;26.12;100268.50;6230634;22;20098;-65
2022/10/08 08:26:56;;;;;;;13.43;4.53;;;;;;;28.06;26.20;100262.53;6230506;22;20358;-66
2022/10/08 08:29:20;;;;;;;9.60;4.32;;;;;;;27.36;26.48;100266.47;6230663;22;20026;-66
2022/10/08 08:31:47;;;;;;;8.25;3.90;;;;;;;26.18;28.06;100263.66;6228036;22;20015;-66
2022/10/08 08:34:30;;;;;;;10.15;4.10;;;;;;;25.89;29.42;100264.59;6228799;22;20015;-66
2022/10/08 08:36:55;;;;;;;8.57;4.25;;;;;;;25.24;29.51;100260.84;6230265;22;20020;-65
2022/10/08 08:39:25;;;;;;;7.32;4.30;;;;;;;24.54;30.24;100263.09;6230428;22;20050;-66
2022/10/08 08:42:11;;;;;;;15.48;5.00;;;;;;;23.89;31.60;100260.88;6230851;22;20015;-67
2022/10/08 08:44:40;;;;;;;8.85;3.97;;;;;;;25.20;29.73;100255.94;6230681;22;20396;-66
2022/10/08 08:47:17;;;;;;;6.95;3.30;;;;;;;26.70;27.10;100246.88;6230888;22;20019;-66
2022/10/08 08:49:52;;;;;;;8.75;4.03;;;;;;;26.52;27.37;100252.00;6203172;22;20019;-67
2022/10/08 08:52:20;;;;;;;9.38;3.97;;;;;;;25.48;28.75;100253.38;6230338;22;20043;-66
2022/10/08 08:54:48;;;;;;;14.13;4.30;;;;;;;24.31;30.21;100243.22;6231039;22;20093;-66
2022/10/08 08:57:29;;;;;;;7.28;3.67;;;;;;;23.55;31.70;100238.63;6229579;22;20149;-65
2022/10/08 08:59:59;;;;;;;10.57;3.97;;;;;;;23.25;31.98;100241.09;6204131;22;20339;-64
2022/10/08 09:02:44;;;;;;;5.80;3.58;;;;;;;24.29;31.32;100242.53;6230916;22;20020;-65
2022/10/08 09:05:14;;;;;;;10.80;4.32;;;;;;;25.31;28.53;100233.63;6231017;22;20020;-66
2022/10/08 09:07:48;;;;;;;7.82;3.28;;;;;;;26.03;27.40;100242.69;6231522;22;20327;-65
2022/10/08 09:10:28;;;;;;;10.02;4.10;;;;;;;25.41;27.99;100227.88;6230594;22;20513;-66
2022/10/08 09:12:54;;;;;;;8.40;3.72;;;;;;;23.78;29.60;100228.63;6230335;22;20031;-69
2022/10/08 09:15:35;;;;;;;9.60;3.95;;;;;;;22.69;31.63;100232.06;6206448;22;20019;-66
2022/10/08 09:18:02;;;;;;;6.60;3.20;;;;;;;21.88;32.90;100223.97;6234594;22;20027;-67
2022/10/08 09:20:28;;;;;;;9.63;4.13;;;;;;;21.28;33.83;100216.00;6235514;22;20020;-66
2022/10/08 09:22:53;;;;;;;7.50;3.35;;;;;;;21.57;33.89;100204.72;6235943;22;20023;-68
2022/10/08 09:25:24;;;;;;;8.18;3.75;;;;;;;22.04;33.61;100212.28;6230181;22;20019;-66
2022/10/08 09:27:59;;;;;;;8.80;3.83;;;;;;;22.03;33.23;100213.28;6202575;22;20020;-66
2022/10/08 09:30:37;;;;;;;6.68;3.97;;;;;;;21.80;33.94;100207.63;6232314;22;20015;-65
2022/10/08 09:33:22;;;;;;;9.95;3.97;;;;;;;21.87;34.35;100205.97;6231533;22;20019;-66
2022/10/08 09:35:50;;;;;;;8.18;4.55;;;;;;;22.55;33.09;100202.91;6230416;22;20332;-66
2022/10/08 09:38:20;;;;;;;10.57;4.85;;;;;;;23.98;30.84;100194.41;6230396;22;20015;-68
2022/10/08 09:41:02;;;;;;;10.48;4.30;;;;;;;25.64;29.20;100190.38;6229597;22;20046;-66
2022/10/08 09:43:28;;;;;;;7.18;4.13;;;;;;;26.99;26.39;100186.47;6229280;22;20019;-66
2022/10/08 09:45:53;;;;;;;12.05;4.13;;;;;;;28.06;25.23;100188.53;6230531;22;20808;-66
2022/10/08 09:48:21;;;;;;;9.52;4.50;;;;;;;28.50;25.07;100187.91;6228249;22;20019;-65
2022/10/08 09:50:56;;;;;;;7.78;3.80;;;;;;;28.74;23.92;100179.00;6202983;22;20351;-66
2022/10/08 09:53:23;;;;;;;9.35;4.68;;;;;;;28.84;23.69;100181.34;6229757;22;20015;-66
2022/10/08 09:55:53;;;;;;;8.77;4.35;;;;;;;27.64;24.98;100179.63;6229027;22;20033;-67
2022/10/08 09:58:19;;;;;;;14.50;4.25;;;;;;;26.24;26.46;100165.31;6229261;22;20441;-67
2022/10/08 10:00:44;;;;;;;9.70;3.75;;;;;;;24.89;27.89;100166.94;6228977;22;20493;-67
2022/10/08 10:03:16;;;;;;;7.85;3.72;;;;;;;24.07;29.60;100173.41;6229089;22;20023;-67
2022/10/08 10:05:40;;;;;;;6.80;3.58;;;;;;;24.02;29.62;100167.66;6229244;22;20069;-69
2022/10/08 10:08:05;;;;;;;8.95;4.65;;;;;;;24.02;29.69;100154.91;6229856;22;20015;-68
2022/10/08 10:10:35;;;;;;;6.43;4.53;;;;;;;23.57;29.85;100154.91;6231964;22;20015;-68
2022/10/08 10:13:39;;;;;;;8.00;3.70;;;;;;;22.83;31.80;100150.84;6234662;22;20019;-68
2022/10/08 10:16:13;;;;;;;11.13;3.95;;;;;;;21.75;33.15;100153.03;6114872;23;20456;-68
2022/10/08 10:18:48;;;;;;;7.15;3.60;;;;;;;21.10;33.94;100147.47;6106831;23;20025;-67
2022/10/08 10:21:20;;;;;;;9.02;4.05;;;;;;;20.12;35.69;100137.94;6106686;23;20017;-68
2022/10/08 10:24:10;;;;;;;13.65;4.10;;;;;;;19.73;36.17;100132.09;6105557;23;20025;-67
2022/10/08 10:26:40;;;;;;;9.50;3.97;;;;;;;19.20;37.19;100135.59;6105610;23;20021;-66
2022/10/08 10:29:30;;;;;;;12.48;4.07;;;;;;;18.58;38.31;100124.72;6081951;23;20021;-67
2022/10/08 10:32:03;;;;;;;6.18;3.63;;;;;;;18.43;38.00;100127.88;6057711;23;20041;-67
2022/10/08 10:34:31;;;;;;;7.18;3.17;;;;;;;17.91;39.18;100121.22;6106441;23;20021;-66
2022/10/08 10:37:01;;;;;;;10.50;3.83;;;;;;;17.56;40.39;100126.31;6105734;23;20160;-68
2022/10/08 10:39:37;;;;;;;15.65;4.60;;;;;;;17.40;40.80;100124.19;6081117;23;20975;-68
2022/10/08 10:42:17;;;;;;;6.72;3.40;;;;;;;17.05;42.21;100114.78;6056456;23;20014;-68
2022/10/08 10:44:52;;;;;;;9.13;3.78;;;;;;;16.86;43.14;100117.44;6106440;23;20097;-69
2022/10/08 10:47:20;;;;;;;9.00;3.72;;;;;;;16.83;43.07;100120.41;6190251;22;20061;-66
2022/10/08 10:49:45;;;;;;;7.78;4.18;;;;;;;16.79;42.88;100108.22;6227919;22;20456;-70
2022/10/08 10:52:30;;;;;;;9.60;3.45;;;;;;;16.92;42.43;100108.81;6227625;22;20163;-66
2022/10/08 10:55:22;;;;;;;8.80;3.60;;;;;;;16.67;43.97;100109.31;6227372;22;20023;-69
2022/10/08 10:57:59;;;;;;;8.43;3.40;;;;;;;16.49;44.59;100101.00;6228251;22;20085;-69
2022/10/08 11:00:32;;;;;;;7.43;4.07;;;;;;;16.40;44.76;100109.03;6227481;22;20020;-70
2022/10/08 11:03:49;;;;;;;8.07;3.58;;;;;;;16.45;44.44;100093.34;6228765;22;20026;-69
2022/10/08 11:06:31;;;;;;;6.43;3.17;;;;;;;16.41;44.59;100105.34;6134993;23;20020;-71
2022/10/08 11:09:14;;;;;;;11.07;4.03;;;;;;;16.43;44.50;100098.84;6109891;23;20092;-67
2022/10/08 11:11:47;;;;;;;11.20;4.05;;;;;;;16.19;45.20;100092.94;6135549;23;20044;-70
2022/10/08 11:14:54;;;;;;;7.88;3.58;;;;;;;16.20;44.98;100095.50;6111312;23;20013;-68
2022/10/08 11:17:44;;;;;;;6.40;3.45;;;;;;;16.23;44.45;100086.31;6111318;23;20012;-65
2022/10/08 11:20:27;;;;;;;5.55;3.17;;;;;;;16.12;44.87;100083.72;6138536;23;20072;-69
2022/10/08 11:23:12;;;;;;;12.07;3.53;;;;;;;15.85;45.67;100079.75;6114659;23;20016;-72
2022/10/08 11:25:49;;;;;;;10.52;4.45;;;;;;;15.70;45.76;100080.19;6082403;23;20087;-68
2022/10/08 11:28:45;;;;;;;10.77;4.45;;;;;;;15.59;46.71;100070.38;6110349;23;20044;-69
2022/10/08 11:31:25;;;;;;;8.40;3.80;;;;;;;15.68;46.21;100068.75;6048937;23;20458;-68
2022/10/08 11:33:52;;;;;;;8.50;4.30;;;;;;;15.60;46.76;100066.69;6052102;23;20131;-69
2022/10/08 11:36:23;;;;;;;6.82;3.63;;;;;;;15.55;46.94;100069.78;6059105;23;20030;-68